Latest Weather Observations for Truscott

IDW60801

Issued at 8:34 am WST Wednesday 26 July 2017 (issued every 30 minutes, with the page automatically refreshed every 10 minutes)

About weather observations | Map of weather stations | Latest weather observations for WA | Other Formats
Station Details ID: 001020 Name: TRUSCOTT Lat: -14.09 Lon: 126.39 Height: 51.0 m
Data from the previous 72 hours. | See also: Recent months at Truscott
Date/Time
WST
Temp
°C
App
Temp
°C
Dew
Point
°C
Rel
Hum
%
Delta-T
°C
Wind Press
QNH
hPa
Press
MSL
hPa
Rain since
9am
mm
Dir  Spd
km/h
Gust
km/h
Spd
kts
Gust
kts
26/08:30am 27.4 24.2 6.8 27 10.9 ESE 13 24 7 13 1015.0 1014.8 0.0
26/08:00am 26.1 24.4 9.9 36 9.0 SE 9 13 5 7 1014.9 1014.7 0.0
26/07:30am 24.8 25.3 11.7 44 7.4 CALM 0 0 0 0 1014.7 1014.5 0.0
26/07:00am 22.2 22.4 13.0 56 5.3 SSE 4 6 2 3 1014.4 1014.2 0.0
26/06:30am 19.4 21.0 14.9 75 2.6 CALM 0 0 0 0 1014.1 1013.9 0.0
26/06:00am 19.1 19.7 15.2 78 2.3 SW 6 7 3 4 1013.8 1013.6 0.0
26/05:30am 19.6 21.5 15.7 78 2.3 CALM 0 0 0 0 1013.4 1013.2 0.0
26/05:00am 19.7 21.2 15.8 78 2.3 WSW 2 6 1 3 1013.1 1012.8 0.0
26/04:30am 20.1 21.7 16.9 82 1.9 WSW 4 9 2 5 1012.9 1012.6 0.0
26/04:00am 20.1 21.8 16.3 79 2.3 SW 2 6 1 3 1012.7 1012.4 0.0
26/03:30am 21.0 22.6 17.8 82 2.0 WSW 6 7 3 4 1012.7 1012.4 0.0
26/03:00am 20.6 22.2 16.8 79 2.3 SW 4 6 2 3 1012.5 1012.2 0.0
26/02:30am 20.1 21.4 14.2 69 3.4 CALM 0 0 0 0 1012.4 1012.1 0.0
26/02:00am 20.2 21.2 13.2 64 4.0 CALM 0 0 0 0 1012.6 1012.3 0.0
26/01:30am 20.7 20.6 13.2 62 4.3 SW 6 7 3 4 1012.7 1012.4 0.0
26/01:00am 21.0 20.7 12.7 59 4.7 SSW 6 7 3 4 1012.9 1012.6 0.0
26/12:30am 21.2 20.8 13.1 60 4.6 S 7 7 4 4 1013.1 1012.8 0.0
26/12:00am 21.7 21.8 13.9 61 4.5 SE 6 7 3 4 1013.2 1013.0 0.0
 
Date/Time
WST
Temp
°C
App
Temp
°C
Dew
Point
°C
Rel
Hum
%
Delta-T
°C
Wind Press
QNH
hPa
Press
MSL
hPa
Rain since
9am
mm
Dir  Spd
km/h
Gust
km/h
Spd
kts
Gust
kts
25/11:30pm 22.3 22.5 14.2 60 4.7 ESE 6 7 3 4 1013.2 1013.0 0.0
25/11:00pm 22.4 22.8 15.3 64 4.2 ESE 7 9 4 5 1013.3 1013.1 0.0
25/10:30pm 22.1 22.7 15.9 68 3.7 E 7 9 4 5 1013.5 1013.3 0.0
25/10:00pm 22.5 23.2 16.1 67 3.9 ESE 7 9 4 5 1013.7 1013.5 0.0
25/09:30pm 23.3 24.4 17.1 68 3.8 ESE 7 9 4 5 1013.7 1013.5 0.0
25/09:00pm 23.7 24.2 15.5 60 4.9 ESE 7 11 4 6 1013.9 1013.7 0.0
25/08:30pm 24.2 24.5 14.9 56 5.6 E 7 11 4 6 1013.7 1013.5 0.0
25/08:00pm 24.5 24.4 14.0 52 6.2 E 7 9 4 5 1013.5 1013.3 0.0
25/07:30pm 24.2 24.1 14.0 53 6.0 ENE 7 9 4 5 1013.2 1013.0 0.0
25/07:00pm 24.5 25.1 15.4 57 5.5 NE 6 7 3 4 1012.9 1012.6 0.0
25/06:30pm 25.1 25.8 15.7 56 5.7 NNE 6 7 3 4 1012.6 1012.3 0.0
25/06:00pm 25.7 26.9 16.0 55 5.9 N 4 7 2 4 1012.2 1011.9 0.0
25/05:30pm 26.9 27.6 16.2 52 6.6 N 7 9 4 5 1012.0 1011.7 0.0
25/05:00pm 28.6 28.7 15.5 45 8.0 N 9 13 5 7 1011.7 1011.4 0.0
25/04:30pm 30.8 28.8 10.2 28 11.7 NE 11 17 6 9 1011.4 1011.1 0.0
25/04:00pm 31.8 29.2 9.3 25 12.7 NE 13 19 7 10 1011.2 1010.9 0.0
25/03:30pm 32.8 29.3 5.4 18 14.6 ENE 13 19 7 10 1011.0 1010.7 0.0
25/03:00pm 33.3 29.6 2.2 14 15.8 ENE 11 15 6 8 1010.9 1010.6 0.0
25/02:30pm 33.3 28.8 2.2 14 15.8 ENE 15 24 8 13 1011.1 1010.8 0.0
25/02:00pm 32.8 28.6 1.8 14 15.6 E 13 22 7 12 1011.3 1011.0 0.0
25/01:30pm 33.0 27.5 0.9 13 15.9 E 19 30 10 16 1011.6 1011.3 0.0
25/01:00pm 32.6 27.3 1.7 14 15.5 E 19 26 10 14 1012.0 1011.7 0.0
25/12:30pm 32.3 26.8 0.4 13 15.6 ENE 19 30 10 16 1012.5 1012.2 0.0
25/12:00pm 31.8 26.2 0.0 13 15.4 E 19 35 10 19 1013.1 1012.8 0.0
25/11:30am 31.7 26.1 -0.1 13 15.4 E 19 28 10 15 1013.6 1013.4 0.0
25/11:00am 31.1 25.2 -0.5 13 15.1 E 20 32 11 17 1014.0 1013.8 0.0
25/10:30am 31.1 25.4 -0.5 13 15.1 ESE 19 30 10 16 1014.5 1014.3 0.0
25/10:00am 30.5 24.8 -1.0 13 14.9 ESE 19 35 10 19 1014.7 1014.5 0.0
25/09:30am 29.2 23.3 -2.0 13 14.3 E 19 30 10 16 1014.9 1014.7 0.0
25/09:00am 28.2 22.2 -1.8 14 13.7 ESE 20 33 11 18 1015.0 1014.8 0.0
25/08:30am 27.6 22.3 -0.5 16 13.1 ESE 17 28 9 15 1015.0 1014.8 0.0
25/08:00am 26.7 21.4 -0.3 17 12.5 ESE 17 28 9 15 1014.9 1014.7 0.0
25/07:30am 25.9 21.1 0.5 19 11.9 ESE 15 24 8 13 1014.5 1014.3 0.0
25/07:00am 24.6 21.1 1.5 22 10.9 ESE 9 15 5 8 1014.2 1014.0 0.0
25/06:30am 23.2 20.1 1.5 24 10.1 ESE 7 9 4 5 1013.9 1013.7 0.0
25/06:00am 22.5 19.3 0.9 24 9.9 SE 7 11 4 6 1013.5 1013.3 0.0
25/05:30am 22.9 19.6 0.1 22 10.4 SSE 7 13 4 7 1013.4 1013.2 0.0
25/05:00am 22.6 19.0 0.4 23 10.1 SSE 9 13 5 7 1013.3 1013.1 0.0
25/04:30am 21.1 18.0 1.4 27 9.0 SE 7 9 4 5 1013.2 1013.0 0.0
25/04:00am 20.8 17.8 1.1 27 9.0 ESE 6 7 3 4 1013.2 1013.0 0.0
25/03:30am 23.3 19.7 0.4 22 10.5 SE 9 11 5 6 1013.1 1012.8 0.0
25/03:00am 23.1 20.1 2.0 25 10.0 SSE 7 11 4 6 1012.9 1012.6 0.0
25/02:30am 22.6 19.9 3.7 29 9.2 SSE 7 11 4 6 1013.1 1012.8 0.0
25/02:00am 21.4 19.8 8.0 42 7.0 S 6 7 3 4 1013.3 1013.1 0.0
25/01:30am 21.1 19.6 9.0 46 6.4 S 7 9 4 5 1013.5 1013.3 0.0
25/01:00am 22.2 21.1 10.7 48 6.3 SW 7 9 4 5 1013.6 1013.4 0.0
25/12:30am 22.8 21.0 9.6 43 7.2 SW 9 11 5 6 1013.7 1013.5 0.0
25/12:00am 22.2 20.8 9.7 45 6.8 SSW 7 9 4 5 1013.9 1013.7 0.0
 
Date/Time
WST
Temp
°C
App
Temp
°C
Dew
Point
°C
Rel
Hum
%
Delta-T
°C
Wind Press
QNH
hPa
Press
MSL
hPa
Rain since
9am
mm
Dir  Spd
km/h
Gust
km/h
Spd
kts
Gust
kts
24/11:30pm 22.5 20.9 8.6 41 7.4 SSW 7 9 4 5 1014.1 1013.9 0.0
24/11:00pm 22.8 20.8 8.5 40 7.6 SSW 9 13 5 7 1013.9 1013.7 0.0
24/10:30pm 21.9 20.5 11.0 50 6.0 S 9 11 5 6 1013.9 1013.7 0.0
24/10:00pm 22.0 21.5 12.5 54 5.4 E 7 7 4 4 1013.8 1013.6 0.0
24/09:30pm 23.0 22.6 12.9 53 5.8 E 7 11 4 6 1013.9 1013.7 0.0
24/09:00pm 23.2 22.7 12.5 51 6.1 E 7 9 4 5 1014.0 1013.8 0.0
24/08:30pm 23.3 22.7 12.3 50 6.3 E 7 9 4 5 1014.1 1013.9 0.0
24/08:00pm 24.5 23.1 10.8 42 7.7 ENE 9 11 5 6 1014.2 1014.0 0.0
24/07:30pm 24.7 22.4 7.4 33 9.1 E 9 11 5 6 1014.0 1013.8 0.0
24/07:00pm 25.2 23.0 6.4 30 9.8 ENE 7 11 4 6 1013.7 1013.5 0.0
24/06:30pm 26.1 24.2 7.7 31 9.8 NE 7 11 4 6 1013.2 1013.0 0.0
24/06:00pm 26.7 25.1 8.6 32 9.9 NE 7 9 4 5 1012.8 1012.5 0.0
24/05:30pm 27.7 25.9 9.5 32 10.1 NNE 9 13 5 7 1012.4 1012.1 0.0
24/05:00pm 29.8 26.0 3.7 19 13.3 NE 13 19 7 10 1012.0 1011.7 0.0
24/04:30pm 31.0 26.8 1.4 15 14.6 NE 13 20 7 11 1011.6 1011.3 0.0
24/04:00pm 31.8 26.7 1.0 14 15.2 ENE 17 24 9 13 1011.4 1011.1 0.0
24/03:30pm 32.2 27.3 2.3 15 15.1 NE 17 24 9 13 1011.4 1011.1 0.0
24/03:00pm 32.5 27.4 0.6 13 15.7 ENE 17 24 9 13 1011.5 1011.2 0.0
24/02:30pm 32.3 27.1 0.4 13 15.6 E 17 22 9 12 1011.4 1011.1 0.0
24/02:00pm 32.3 27.0 -0.7 12 15.9 E 17 30 9 16 1011.6 1011.3 0.0
24/01:30pm 32.2 26.9 -0.8 12 15.8 ESE 17 26 9 14 1011.9 1011.6 0.0
24/01:00pm 32.1 26.3 0.2 13 15.5 E 20 33 11 18 1012.3 1012.0 0.0
24/12:30pm 32.1 26.1 1.3 14 15.3 E 22 35 12 19 1012.8 1012.5 0.0
24/12:00pm 31.6 26.1 1.8 15 14.9 E 20 35 11 19 1013.3 1013.1 0.0
24/11:30am 30.8 25.0 0.2 14 14.8 E 20 33 11 18 1013.8 1013.6 0.0
24/11:00am 30.8 24.5 -0.8 13 15.0 E 22 35 12 19 1014.2 1014.0 0.0
24/10:30am 30.2 24.1 0.7 15 14.3 E 22 35 12 19 1014.8 1014.6 0.0
24/10:00am 29.7 23.9 2.1 17 13.7 E 22 35 12 19 1015.3 1015.1 0.0
24/09:30am 29.7 24.7 1.2 16 13.9 ESE 17 28 9 15 1015.5 1015.3 0.0
24/09:00am 28.4 23.0 1.0 17 13.2 ESE 19 28 10 15 1015.5 1015.3 0.0
24/08:30am 27.4 22.3 1.0 18 12.6 ESE 17 26 9 14 1015.6 1015.4 0.0
24/08:00am 26.7 22.5 1.9 20 12.0 ESE 13 19 7 10 1015.6 1015.4 0.0
24/07:30am 25.0 21.9 3.6 25 10.5 SE 9 13 5 7 1015.3 1015.1 0.0
24/07:00am 23.6 20.7 2.4 25 10.1 SE 7 11 4 6 1015.0 1014.8 0.0
24/06:30am 22.2 18.9 2.3 27 9.4 SE 9 11 5 6 1014.7 1014.5 0.0
24/06:00am 20.2 17.6 3.4 33 8.0 S 6 7 3 4 1014.3 1014.1 0.0
24/05:30am 20.6 17.7 2.4 30 8.5 SSE 7 9 4 5 1013.9 1013.7 0.0
24/05:00am 20.6 18.2 4.2 34 7.9 SSE 6 9 3 5 1013.5 1013.3 0.0
24/04:30am 20.3 18.1 5.1 37 7.5 S 6 7 3 4 1013.3 1013.1 0.0
24/04:00am 19.7 17.5 6.4 42 6.7 SSE 7 7 4 4 1013.2 1013.0 0.0
24/03:30am 19.5 18.2 7.6 46 6.1 SSW 4 6 2 3 1013.1 1012.8 0.0
24/03:00am 20.0 18.5 8.4 47 6.1 S 6 7 3 4 1013.1 1012.8 0.0
24/02:30am 19.9 18.5 8.9 49 5.8 SSW 6 7 3 4 1013.1 1012.8 0.0
24/02:00am 20.5 19.3 10.3 52 5.5 SSW 7 9 4 5 1013.3 1013.1 0.0
24/01:30am 20.7 19.9 11.6 56 5.1 SSW 7 9 4 5 1013.5 1013.3 0.0
24/01:00am 21.0 20.2 12.9 60 4.6 SW 9 11 5 6 1013.7 1013.5 0.0
24/12:30am 21.3 20.1 12.7 58 4.9 SW 11 13 6 7 1013.8 1013.6 0.0
24/12:00am 21.0 20.2 11.6 55 5.2 SW 7 11 4 6 1013.9 1013.7 0.0
 
Date/Time
WST
Temp
°C
App
Temp
°C
Dew
Point
°C
Rel
Hum
%
Delta-T
°C
Wind Press
QNH
hPa
Press
MSL
hPa
Rain since
9am
mm
Dir  Spd
km/h
Gust
km/h
Spd
kts
Gust
kts
23/11:30pm 21.1 20.0 10.6 51 5.7 SW 7 9 4 5 1014.0 1013.8 0.0
23/11:00pm 20.6 19.6 11.0 54 5.3 S 7 9 4 5 1014.1 1013.9 0.0
23/10:30pm 20.9 20.4 12.6 59 4.7 SSE 7 9 4 5 1014.1 1013.9 0.0
23/10:00pm 21.0 21.0 13.7 63 4.2 SE 6 9 3 5 1014.2 1014.0 0.0
23/09:30pm 21.6 21.8 14.7 65 4.1 SE 7 9 4 5 1014.3 1014.1 0.0
23/09:00pm 22.0 22.1 14.4 62 4.5 SE 7 9 4 5 1014.3 1014.1 0.0
23/08:30pm 21.6 21.6 14.3 63 4.3 SE 7 9 4 5 1014.1 1013.9 0.0
23/08:00pm 22.5 22.1 13.0 55 5.5 ESE 7 9 4 5 1014.0 1013.8 0.0
23/07:30pm 22.6 22.1 12.0 51 6.0 ESE 6 7 3 4 1013.9 1013.7 0.0
23/07:00pm 23.5 23.0 11.9 48 6.6 ENE 6 9 3 5 1013.5 1013.3 0.0
23/06:30pm 23.5 23.4 13.4 53 5.9 NE 6 7 3 4 1012.9 1012.6 0.0
23/06:00pm 24.6 24.7 13.8 51 6.4 NE 6 7 3 4 1012.5 1012.2 0.0
23/05:30pm 26.1 25.7 12.9 44 7.7 NNE 7 9 4 5 1012.1 1011.8 0.0
23/05:00pm 27.8 26.3 11.8 37 9.2 NNE 11 15 6 8 1011.8 1011.5 0.0
23/04:30pm 28.9 26.9 11.5 34 10.0 NNE 13 20 7 11 1011.6 1011.3 0.0
23/04:00pm 29.7 27.6 11.2 31 10.7 NNE 13 20 7 11 1011.5 1011.2 0.0
23/03:30pm 30.1 29.1 13.4 36 10.0 N 11 19 6 10 1011.3 1011.0 0.0
23/03:00pm 32.2 28.8 4.1 17 14.6 NE 11 15 6 8 1011.4 1011.1 0.0
23/02:30pm 31.9 27.8 2.1 15 15.0 E 13 20 7 11 1011.5 1011.2 0.0
23/02:00pm 31.9 27.4 2.1 15 15.0 E 15 24 8 13 1011.7 1011.4 0.0
23/01:30pm 31.9 27.4 2.1 15 15.0 ENE 15 24 8 13 1012.2 1011.9 0.0
23/01:00pm 31.3 26.3 1.6 15 14.7 ESE 17 30 9 16 1012.6 1012.3 0.0
23/12:30pm 31.2 26.2 1.5 15 14.7 E 17 24 9 13 1013.1 1012.8 0.0
23/12:00pm 31.0 26.0 1.4 15 14.6 E 17 30 9 16 1013.6 1013.4 0.0
23/11:30am 30.8 25.9 2.1 16 14.3 E 17 32 9 17 1014.2 1014.0 0.0
23/11:00am 30.6 25.8 2.8 17 14.0 E 17 28 9 15 1014.6 1014.4 0.0
23/10:30am 30.1 25.4 3.2 18 13.6 E 17 24 9 13 1015.1 1014.9 0.0
23/10:00am 29.1 23.4 0.7 16 13.7 ESE 20 32 11 17 1015.4 1015.2 0.0
23/09:30am 28.3 22.8 0.9 17 13.2 ESE 19 28 10 15 1015.6 1015.4 0.0
23/09:00am 27.5 22.5 1.1 18 12.6 ESE 17 26 9 14 1015.8 1015.6 0.0

Other Formats:

Comma delimited format used in spreadsheet applications
http://www.bom.gov.au/fwo/IDW60801/IDW60801.95101.axf

JavaScript Object Notation format (JSON) in row-major order
http://www.bom.gov.au/fwo/IDW60801/IDW60801.95101.json